createdAt,value
2018-03-12T00:02:05.035Z,93.76
2018-03-12T00:12:00.999Z,93.80
2018-03-12T00:21:59.611Z,93.25
2018-03-12T00:31:57.771Z,93.45
2018-03-12T00:41:55.723Z,93.55
2018-03-12T00:51:53.459Z,92.39
2018-03-12T01:01:47.501Z,92.29
2018-03-12T01:11:44.484Z,92.80
2018-03-12T01:21:36.950Z,92.49
2018-03-12T01:31:34.369Z,92.45
2018-03-12T01:41:31.679Z,92.80
2018-03-12T01:51:28.665Z,91.79
2018-03-12T02:01:25.092Z,92.65
2018-03-12T02:11:23.133Z,93.66
2018-03-12T02:21:19.853Z,93.80
2018-03-12T02:31:12.811Z,93.52
2018-03-12T02:41:09.633Z,95.76
2018-03-12T02:51:06.856Z,97.13
2018-03-12T03:01:03.264Z,98.20
2018-03-12T03:10:59.035Z,99.99
2018-03-12T03:20:57.733Z,99.99
2018-03-12T03:30:52.064Z,99.74
2018-03-12T03:40:49.046Z,99.99
2018-03-12T03:50:46.894Z,99.99
2018-03-12T04:00:41.186Z,99.88
2018-03-12T04:10:37.016Z,99.99
2018-03-12T04:20:34.993Z,99.99
2018-03-12T04:30:32.047Z,99.99
2018-03-12T04:40:25.991Z,99.99
2018-03-12T04:50:23.072Z,99.99
2018-03-12T05:00:20.924Z,99.99
2018-03-12T05:10:18.899Z,99.99
2018-03-12T05:20:15.063Z,99.99
2018-03-12T05:30:12.640Z,99.99
2018-03-12T05:40:10.381Z,99.99
2018-03-12T05:50:06.770Z,99.99
2018-03-12T06:00:02.654Z,99.99
2018-03-12T06:09:59.984Z,99.99
2018-03-12T06:19:55.736Z,99.99
2018-03-12T06:29:52.333Z,99.99
2018-03-12T06:39:51.367Z,99.58
2018-03-12T06:49:47.673Z,99.33
2018-03-12T06:59:46.774Z,99.33
2018-03-12T07:09:44.485Z,95.97
2018-03-12T07:19:44.201Z,94.55
2018-03-12T07:29:42.298Z,92.77
2018-03-12T07:39:38.084Z,89.63
2018-03-12T07:49:37.226Z,82.09
2018-03-12T07:59:32.676Z,79.43
2018-03-12T08:09:32.204Z,76.41
2018-03-12T08:19:31.081Z,74.14
2018-03-12T08:29:26.483Z,73.29
2018-03-12T08:39:21.821Z,72.17
2018-03-12T08:49:20.337Z,72.96
2018-03-12T08:59:18.008Z,72.85
2018-03-12T09:09:11.274Z,70.48
2018-03-12T09:18:58.188Z,68.66
2018-03-12T09:28:47.778Z,66.10
2018-03-12T09:38:37.008Z,66.14
2018-03-12T09:48:15.939Z,68.83
2018-03-12T09:57:52.673Z,65.82
2018-03-12T10:07:33.098Z,66.80
2018-03-12T10:17:05.162Z,64.73
2018-03-12T10:26:33.803Z,63.18
2018-03-12T10:36:15.130Z,62.69
2018-03-12T10:45:49.785Z,60.42
2018-03-12T10:55:20.659Z,56.73
2018-03-12T11:04:57.980Z,53.40
2018-03-12T11:14:34.810Z,49.59
2018-03-12T11:24:11.507Z,49.99
2018-03-12T11:33:51.167Z,54.84
2018-03-12T11:43:19.201Z,55.47
2018-03-12T11:52:55.065Z,57.32
2018-03-12T12:02:35.715Z,54.38
2018-03-12T12:12:08.511Z,51.53
2018-03-12T12:21:37.353Z,51.95
2018-03-12T12:31:14.185Z,51.07
2018-03-12T12:40:56.348Z,51.40
2018-03-12T12:50:29.180Z,50.29
2018-03-12T12:59:57.872Z,50.04
2018-03-12T13:09:38.371Z,51.45
2018-03-12T13:19:06.008Z,52.18
2018-03-12T13:28:42.420Z,52.56
2018-03-12T13:38:23.092Z,51.78
2018-03-12T13:47:52.033Z,50.51
2018-03-12T13:57:28.600Z,50.61
2018-03-12T14:07:04.893Z,51.04
2018-03-12T14:16:41.838Z,50.54
2018-03-12T14:26:22.113Z,51.60
2018-03-12T14:35:49.355Z,53.17
2018-03-12T14:45:29.711Z,52.97
2018-03-12T14:55:01.925Z,50.74
2018-03-12T15:04:36.525Z,52.94
2018-03-12T15:14:16.393Z,55.45
2018-03-12T15:23:43.367Z,55.78
2018-03-12T15:33:19.783Z,59.27
2018-03-12T15:43:00.112Z,63.87
2018-03-12T15:52:32.803Z,63.97
2018-03-12T16:02:04.930Z,63.54
2018-03-12T16:11:38.517Z,64.18
2018-03-12T16:21:10.728Z,64.58
2018-03-12T16:30:39.010Z,66.27
2018-03-12T16:40:17.593Z,69.32
2018-03-12T16:49:48.364Z,69.86
2018-03-12T16:59:34.743Z,66.72
2018-03-12T17:09:29.983Z,68.11
2018-03-12T17:19:26.862Z,72.45
2018-03-12T17:29:23.083Z,73.54
2018-03-12T17:39:17.783Z,73.43
2018-03-12T17:49:14.396Z,72.92
2018-03-12T17:59:08.833Z,74.90
2018-03-12T18:09:05.269Z,66.28
2018-03-12T18:19:02.209Z,64.86
2018-03-12T18:28:59.330Z,65.16
2018-03-12T18:38:55.631Z,68.51
2018-03-12T18:48:52.163Z,73.23
2018-03-12T18:58:44.542Z,81.29
2018-03-12T19:08:41.531Z,84.53
2018-03-12T19:18:38.353Z,85.38
2018-03-12T19:28:34.435Z,88.04
2018-03-12T19:38:27.511Z,93.54
2018-03-12T19:48:23.802Z,92.58
2018-03-12T19:58:18.228Z,91.35
2018-03-12T20:08:11.942Z,93.24
2018-03-12T20:18:06.217Z,94.60
2018-03-12T20:28:00.668Z,95.12
2018-03-12T20:37:55.216Z,86.96
2018-03-12T20:47:50.442Z,92.46
2018-03-12T20:57:46.271Z,92.60
2018-03-12T21:07:35.130Z,95.36
2018-03-12T21:17:17.450Z,97.04
2018-03-12T21:27:10.564Z,96.98
2018-03-12T21:37:06.958Z,97.58
2018-03-12T21:47:00.868Z,99.38
2018-03-12T21:56:55.636Z,99.58
2018-03-12T22:06:53.484Z,99.99
2018-03-12T22:16:50.236Z,99.99
2018-03-12T22:26:46.013Z,99.99
2018-03-12T22:36:41.955Z,99.99
2018-03-12T22:46:37.442Z,99.99
2018-03-12T22:56:34.808Z,97.69
2018-03-12T23:06:31.234Z,97.63
2018-03-12T23:16:24.414Z,99.73
2018-03-12T23:26:18.843Z,99.98
2018-03-12T23:36:13.925Z,99.99
2018-03-12T23:46:10.860Z,99.99
2018-03-12T23:56:07.406Z,99.87
